Terminal Aerodrome Forecast
Issued by NWS Jackson, KY

Home | Current Version | Previous Version | Text Only | Print | Product List | Glossary On
Versions: 1 2 3 4 5 6 7 8 9 10 11 12 13 14 15 16
000
FTUS43 KJKL 242300
TAFJKL
TAF
KJKL 242333Z 2500/2524 25008G18KT P6SM -SHRA OVC015
     FM250800 26010KT 5SM -RA BR OVC018
     FM251100 25008KT P6SM BKN025
     FM251800 24006KT P6SM SCT025=

USA.gov is the U.S. government's official web portal to all federal, state and local government web resources and services.